Observation data for Memphis on 01/19/2019      Previous  Date  Next       Current Mesonet Observations  Soil Data  Daily Summary Page  Observations in Plain Language
KMES 190600Z 35033G46KT 02/M03 A2995 RMK A01 T00221025  RH  072%=      5-min Rain = 0
KMES 190605Z 36034G47KT 02/M03 A2995 RMK A01 T00221028  RH  070%=      5-min Rain = 0
KMES 190610Z 35029G37KT 02/M03 A2997 RMK A01 T00221029  RH  070%=      5-min Rain = 0
KMES 190615Z 35030G39KT 02/M03 A2997 RMK A01 T00211030  RH  069%=      5-min Rain = 0
KMES 190620Z 35028G37KT 02/M03 A2998 RMK A01 T00211030  RH  069%=      5-min Rain = 0
KMES 190625Z 35029G37KT 02/M03 A2998 RMK A01 T00211031  RH  069%=      5-min Rain = 0
KMES 190630Z 35028G36KT 02/M03 A2999 RMK A01 T00211031  RH  069%=      5-min Rain = 0
KMES 190635Z 35028G36KT 02/M03 A30 RMK A01 T00211031  RH  069%=      5-min Rain = 0
KMES 190640Z 35027G36KT 02/M03 A3001 RMK A01 T00211031  RH  069%=      5-min Rain = 0
KMES 190645Z 35021G27KT 02/M03 A3001 RMK A01 T00221029  RH  070%=      5-min Rain = 0
KMES 190650Z 35020G32KT 02/M03 A3002 RMK A01 T00221028  RH  070%=      5-min Rain = 0
KMES 190655Z 34017G23KT 02/M03 A3003 RMK A01 T00221028  RH  070%=      5-min Rain = 0
KMES 190700Z 34016G22KT 02/M03 A3004 RMK A01 T00221027  RH  070%=      5-min Rain = 0
KMES 190705Z 34020G30KT 02/M03 A3004 RMK A01 T00231027  RH  070%=      5-min Rain = 0
KMES 190710Z 34021G31KT 02/M03 A3004 RMK A01 T00241028  RH  069%=      5-min Rain = 0
KMES 190715Z 34016G24KT 02/M03 A3005 RMK A01 T00241027  RH  069%=      5-min Rain = 0
KMES 190720Z 34016G24KT 02/M03 A3005 RMK A01 T00241027  RH  070%=      5-min Rain = 0
KMES 190725Z 34018G26KT 02/M03 A3005 RMK A01 T00241027  RH  069%=      5-min Rain = 0
KMES 190730Z 34019G26KT 02/M03 A3005 RMK A01 T00241027  RH  070%=      5-min Rain = 0
KMES 190735Z 34021G28KT 02/M03 A3005 RMK A01 T00241027  RH  070%=      5-min Rain = 0
KMES 190740Z 34021G28KT 02/M03 A3005 RMK A01 T00241026  RH  070%=      5-min Rain = 0
KMES 190745Z 34020G25KT 02/M03 A3006 RMK A01 T00241025  RH  071%=      5-min Rain = 0
KMES 190750Z 34019G29KT 02/M02 A3006 RMK A01 T00241023  RH  072%=      5-min Rain = 0
KMES 190755Z 34019G28KT 02/M02 A3005 RMK A01 T00241023  RH  072%=      5-min Rain = 0
KMES 190800Z 34020G29KT 02/M02 A3005 RMK A01 T00241022  RH  072%=      5-min Rain = 0
KMES 190805Z 34023G30KT 02/M02 A3005 RMK A01 T00241023  RH  072%=      5-min Rain = 0
KMES 190810Z 34020G29KT 02/M02 A3005 RMK A01 T00241022  RH  072%=      5-min Rain = 0
KMES 190815Z 34021G31KT 03/M02 A3006 RMK A01 T00251023  RH  071%=      5-min Rain = 0
KMES 190820Z 34021G29KT 03/M02 A3006 RMK A01 T00251024  RH  071%=      5-min Rain = 0
KMES 190825Z 34020G26KT 02/M02 A3007 RMK A01 T00241024  RH  071%=      5-min Rain = 0
KMES 190830Z 33015G22KT 02/M03 A3007 RMK A01 T00241025  RH  071%=      5-min Rain = 0
KMES 190835Z 34018G25KT 02/M03 A3007 RMK A01 T00221029  RH  070%=      5-min Rain = 0
KMES 190840Z 33020G31KT 02/M03 A3008 RMK A01 T00201034  RH  068%=      5-min Rain = 0
KMES 190845Z 34022G31KT 02/M04 A3008 RMK A01 T00181037  RH  067%=      5-min Rain = 0
KMES 190850Z 34027G34KT 02/M04 A3008 RMK A01 T00161042  RH  066%=      5-min Rain = 0
KMES 190855Z 34031G38KT 01/M05 A3008 RMK A01 T00141045  RH  065%=      5-min Rain = 0
KMES 190900Z 34028G35KT 01/M05 A3008 RMK A01 T00131046  RH  065%=      5-min Rain = 0
KMES 190905Z 34027G34KT 01/M05 A3009 RMK A01 T00121048  RH  065%=      5-min Rain = 0
KMES 190910Z 34027G34KT 01/M05 A3009 RMK A01 T00111049  RH  064%=      5-min Rain = 0
KMES 190915Z 34024G33KT 01/M05 A3009 RMK A01 T00111048  RH  065%=      5-min Rain = 0
KMES 190920Z 34027G34KT 01/M05 A301 RMK A01 T00091050  RH  065%=      5-min Rain = 0
KMES 190925Z 34026G34KT 01/M05 A301 RMK A01 T00061052  RH  065%=      5-min Rain = 0
KMES 190930Z 34025G33KT 01/M05 A301 RMK A01 T00061051  RH  066%=      5-min Rain = 0
KMES 190935Z 34021G30KT 01/M05 A3011 RMK A01 T00051051  RH  067%=      5-min Rain = 0
KMES 190940Z 34019G27KT 01/M05 A3011 RMK A01 T00051050  RH  067%=      5-min Rain = 0
KMES 190945Z 34021G27KT 01/M05 A3012 RMK A01 T00051049  RH  067%=      5-min Rain = 0
KMES 190950Z 34021G27KT 01/M05 A3012 RMK A01 T00051049  RH  067%=      5-min Rain = 0
KMES 190955Z 34019G27KT 01/M05 A3012 RMK A01 T00051048  RH  068%=      5-min Rain = 0
KMES 191000Z 34021G35KT 00/M05 A3012 RMK A01 T00041048  RH  068%=      5-min Rain = 0
KMES 191005Z 34024G33KT 00/M05 A3013 RMK A01 T00041050  RH  068%=      5-min Rain = 0
KMES 191010Z 34024G30KT 00/M05 A3013 RMK A01 T00021051  RH  068%=      5-min Rain = 0
KMES 191015Z 35025G32KT 00/M05 A3013 RMK A01 T00021051  RH  068%=      5-min Rain = 0
KMES 191020Z 34019G25KT 00/M05 A3013 RMK A01 T00011051  RH  068%=      5-min Rain = 0
KMES 191025Z 34019G28KT 00/M05 A3014 RMK A01 T00011051  RH  069%=      5-min Rain = 0
KMES 191030Z 34020G29KT 00/05 A3014 RMK A01 T00-00-51  RH  069%=      5-min Rain = 0
KMES 191035Z 34020G27KT M00/M05 A3014 RMK A01 T10011052  RH  069%=      5-min Rain = 0
KMES 191040Z 34020G28KT M00/M05 A3014 RMK A01 T10021053  RH  069%=      5-min Rain = 0
KMES 191045Z 34019G25KT M00/M05 A3014 RMK A01 T10031053  RH  069%=      5-min Rain = 0
KMES 191050Z 34022G31KT M00/M05 A3014 RMK A01 T10041054  RH  069%=      5-min Rain = 0
KMES 191055Z 34021G27KT M01/M06 A3014 RMK A01 T10051056  RH  068%=      5-min Rain = 0
KMES 191100Z 34022G28KT M01/M06 A3014 RMK A01 T10051057  RH  068%=      5-min Rain = 0
KMES 191105Z 34018G24KT M01/M06 A3014 RMK A01 T10061057  RH  068%=      5-min Rain = 0
KMES 191110Z 33016G26KT M01/M06 A3015 RMK A01 T10071056  RH  069%=      5-min Rain = 0
KMES 191115Z 33016G21KT M01/M06 A3015 RMK A01 T10081056  RH  070%=      5-min Rain = 0
KMES 191120Z 33016KT M01/M06 A3015 RMK A01 T10081056  RH  070%=      5-min Rain = 0
KMES 191125Z 33018G25KT M01/M06 A3015 RMK A01 T10091058  RH  070%=      5-min Rain = 0
KMES 191130Z 33020G28KT M01/M06 A3016 RMK A01 T10091059  RH  069%=      5-min Rain = 0
KMES 191135Z 33017G25KT M01/M06 A3016 RMK A01 T10091059  RH  069%=      5-min Rain = 0
KMES 191140Z 33020G25KT M01/M06 A3016 RMK A01 T10091060  RH  069%=      5-min Rain = 0
KMES 191145Z 33019G26KT M01/M06 A3017 RMK A01 T10091060  RH  068%=      5-min Rain = 0
KMES 191150Z 33018G25KT M01/M06 A3017 RMK A01 T10081060  RH  068%=      5-min Rain = 0
KMES 191155Z 33015G22KT M01/M06 A3017 RMK A01 T10081059  RH  068%=      5-min Rain = 0
KMES 191200Z 33018G24KT M01/M06 A3018 RMK A01 T10081060  RH  068%=      5-min Rain = 0
KMES 191205Z 34016G21KT M01/M06 A3018 RMK A01 T10081059  RH  068%=      5-min Rain = 0
KMES 191210Z 34018G25KT M01/M06 A3018 RMK A01 T10091060  RH  068%=      5-min Rain = 0
KMES 191215Z 34018G26KT M01/M06 A3019 RMK A01 T10081060  RH  068%=      5-min Rain = 0
KMES 191220Z 34019G28KT M01/M06 A3019 RMK A01 T10081059  RH  069%=      5-min Rain = 0
KMES 191225Z 34018G26KT M01/M06 A3019 RMK A01 T10091059  RH  069%=      5-min Rain = 0
KMES 191230Z 34017G23KT M01/M06 A302 RMK A01 T10091058  RH  069%=      5-min Rain = 0
KMES 191235Z 33017G22KT M01/M06 A302 RMK A01 T10091058  RH  070%=      5-min Rain = 0
KMES 191240Z 33017G22KT M01/M06 A302 RMK A01 T10091057  RH  070%=      5-min Rain = 0
KMES 191245Z 33015G21KT M01/M06 A302 RMK A01 T10091057  RH  070%=      5-min Rain = 0
KMES 191250Z 33017G23KT M01/M06 A3021 RMK A01 T10091056  RH  070%=      5-min Rain = 0
KMES 191255Z 33017G22KT M01/M06 A3021 RMK A01 T10081055  RH  071%=      5-min Rain = 0
KMES 191300Z 33018G24KT M01/M06 A3021 RMK A01 T10081055  RH  071%=      5-min Rain = 0
KMES 191305Z 33017G22KT M01/M05 A3021 RMK A01 T10081054  RH  071%=      5-min Rain = 0
KMES 191310Z 33015KT M01/M05 A3022 RMK A01 T10091054  RH  072%=      5-min Rain = 0
KMES 191315Z 33015G21KT M01/M05 A3022 RMK A01 T10091054  RH  072%=      5-min Rain = 0
KMES 191320Z 33016G21KT M01/M05 A3022 RMK A01 T10081053  RH  072%=      5-min Rain = 0
KMES 191325Z 33012G19KT M01/M05 A3022 RMK A01 T10101053  RH  073%=      5-min Rain = 0
KMES 191330Z 33015G22KT M01/M05 A3022 RMK A01 T10091052  RH  073%=      5-min Rain = 0
KMES 191335Z 33014G21KT M01/M05 A3023 RMK A01 T10091052  RH  073%=      5-min Rain = 0
KMES 191340Z 33013G18KT M01/M05 A3023 RMK A01 T10101052  RH  073%=      5-min Rain = 0
KMES 191345Z 33013G19KT M01/M05 A3024 RMK A01 T10101053  RH  073%=      5-min Rain = 0
KMES 191350Z 33014KT M01/M05 A3024 RMK A01 T10101054  RH  072%=      5-min Rain = 0
KMES 191355Z 33016G23KT M01/M06 A3024 RMK A01 T10091055  RH  071%=      5-min Rain = 0
KMES 191400Z 33015KT M01/M06 A3024 RMK A01 T10101056  RH  071%=      5-min Rain = 0
KMES 191405Z 33016G22KT M01/M06 A3024 RMK A01 T10091058  RH  070%=      5-min Rain = 0
KMES 191410Z 34018G23KT M01/M06 A3025 RMK A01 T10081059  RH  068%=      5-min Rain = 0
KMES 191415Z 34016G22KT M01/M06 A3025 RMK A01 T10081060  RH  068%=      5-min Rain = 0
KMES 191420Z 34015G21KT M01/M06 A3025 RMK A01 T10081060  RH  068%=      5-min Rain = 0
KMES 191425Z 33016G21KT M01/M06 A3025 RMK A01 T10071060  RH  067%=      5-min Rain = 0
KMES 191430Z 33015G21KT M01/M06 A3026 RMK A01 T10051059  RH  067%=      5-min Rain = 0
KMES 191435Z 33015G21KT M01/M06 A3026 RMK A01 T10051058  RH  067%=      5-min Rain = 0
KMES 191440Z 34017KT M00/M06 A3026 RMK A01 T10041057  RH  067%=      5-min Rain = 0
KMES 191445Z 34016G22KT M00/M06 A3027 RMK A01 T10031056  RH  067%=      5-min Rain = 0
KMES 191450Z 33017G24KT M00/M06 A3027 RMK A01 T10021056  RH  067%=      5-min Rain = 0
KMES 191455Z 34019G26KT M00/M06 A3028 RMK A01 T10011055  RH  067%=      5-min Rain = 0
KMES 191500Z 33020G28KT 00/06 A3028 RMK A01 T00-00-56  RH  066%=      5-min Rain = 0
KMES 191505Z 33020G27KT 00/M06 A3029 RMK A01 T00011056  RH  065%=      5-min Rain = 0
KMES 191510Z 33019G25KT 00/M06 A3029 RMK A01 T00021057  RH  065%=      5-min Rain = 0
KMES 191515Z 33017G23KT 00/M06 A303 RMK A01 T00041056  RH  064%=      5-min Rain = 0
KMES 191520Z 34019G26KT 01/M06 A303 RMK A01 T00051056  RH  063%=      5-min Rain = 0
KMES 191525Z 34018G25KT 01/M06 A303 RMK A01 T00071055  RH  063%=      5-min Rain = 0
KMES 191530Z 34019G26KT 01/M06 A303 RMK A01 T00081056  RH  062%=      5-min Rain = 0
KMES 191535Z 33021G26KT 01/M06 A3031 RMK A01 T00081057  RH  062%=      5-min Rain = 0
KMES 191540Z 34019G28KT 01/M06 A3031 RMK A01 T00111055  RH  061%=      5-min Rain = 0
KMES 191545Z 33021G27KT 01/M06 A3031 RMK A01 T00121055  RH  061%=      5-min Rain = 0
KMES 191550Z 34022G27KT 01/M06 A3031 RMK A01 T00141056  RH  060%=      5-min Rain = 0
KMES 191555Z 34021G27KT 02/M06 A3031 RMK A01 T00151055  RH  059%=      5-min Rain = 0
KMES 191600Z 34018G25KT 02/M06 A3031 RMK A01 T00151056  RH  059%=      5-min Rain = 0
KMES 191605Z 34018G24KT 02/M06 A3031 RMK A01 T00161056  RH  059%=      5-min Rain = 0
KMES 191610Z 34018G24KT 02/M05 A3032 RMK A01 T00201054  RH  058%=      5-min Rain = 0
KMES 191615Z 34019G27KT 02/M06 A3032 RMK A01 T00221056  RH  056%=      5-min Rain = 0
KMES 191620Z 33019G26KT 02/M06 A3032 RMK A01 T00231057  RH  056%=      5-min Rain = 0
KMES 191625Z 34021G30KT 02/M06 A3032 RMK A01 T00241060  RH  054%=      5-min Rain = 0
KMES 191630Z 35020G27KT 02/M06 A3032 RMK A01 T00241060  RH  054%=      5-min Rain = 0
KMES 191635Z 35018KT 02/M06 A3032 RMK A01 T00241058  RH  055%=      5-min Rain = 0
KMES 191640Z 34021G28KT 03/M06 A3033 RMK A01 T00261057  RH  054%=      5-min Rain = 0
KMES 191645Z 34020G26KT 02/M06 A3033 RMK A01 T00221057  RH  056%=      5-min Rain = 0
KMES 191650Z 34020G25KT 02/M06 A3033 RMK A01 T00201057  RH  057%=      5-min Rain = 0
KMES 191655Z 35019G25KT 02/M06 A3033 RMK A01 T00211055  RH  057%=      5-min Rain = 0
KMES 191700Z 34020G26KT 02/M05 A3033 RMK A01 T00221054  RH  057%=      5-min Rain = 0
KMES 191705Z 34020G27KT 02/M05 A3033 RMK A01 T00241052  RH  057%=      5-min Rain = 0
KMES 191710Z 34017G24KT 02/M05 A3034 RMK A01 T00241052  RH  057%=      5-min Rain = 0
KMES 191715Z 33019G26KT 03/M05 A3034 RMK A01 T00261052  RH  057%=      5-min Rain = 0
KMES 191720Z 34018G24KT 03/M05 A3034 RMK A01 T00261052  RH  057%=      5-min Rain = 0
KMES 191725Z 34016G22KT 03/M05 A3034 RMK A01 T00331049  RH  055%=      5-min Rain = 0
KMES 191730Z 33016G23KT 03/M05 A3034 RMK A01 T00321049  RH  055%=      5-min Rain = 0
KMES 191735Z 34017G24KT 04/M05 A3034 RMK A01 T00351048  RH  055%=      5-min Rain = 0
KMES 191740Z 33018G23KT 03/M05 A3034 RMK A01 T00311050  RH  055%=      5-min Rain = 0
KMES 191745Z 33019G25KT 03/M05 A3033 RMK A01 T00311050  RH  056%=      5-min Rain = 0
KMES 191750Z 33019G26KT 03/M05 A3033 RMK A01 T00321049  RH  056%=      5-min Rain = 0
KMES 191755Z 34021KT 03/M05 A3032 RMK A01 T00331049  RH  055%=      5-min Rain = 0
KMES 191800Z 34020G26KT 04/M05 A3032 RMK A01 T00351048  RH  055%=      5-min Rain = 0
KMES 191805Z 34019G26KT 04/M05 A3032 RMK A01 T00361048  RH  054%=      5-min Rain = 0
KMES 191810Z 34020KT 04/M05 A3031 RMK A01 T00361049  RH  054%=      5-min Rain = 0
KMES 191815Z 33020G26KT 04/M05 A3031 RMK A01 T00351049  RH  054%=      5-min Rain = 0
KMES 191820Z 33019G25KT 04/M05 A3031 RMK A01 T00371049  RH  054%=      5-min Rain = 0
KMES 191825Z 33018G25KT 04/M05 A3031 RMK A01 T00391049  RH  053%=      5-min Rain = 0
KMES 191830Z 34019G25KT 04/M05 A3031 RMK A01 T00421048  RH  052%=      5-min Rain = 0
KMES 191835Z 33019G24KT 04/M05 A3031 RMK A01 T00431049  RH  051%=      5-min Rain = 0
KMES 191840Z 33020G28KT 05/M05 A3031 RMK A01 T00461050  RH  050%=      5-min Rain = 0
KMES 191845Z 33020G27KT 05/M05 A3031 RMK A01 T00461051  RH  050%=      5-min Rain = 0
KMES 191850Z 33018G26KT 05/M05 A3031 RMK A01 T00471050  RH  050%=      5-min Rain = 0
KMES 191855Z 34019G25KT 05/M05 A3031 RMK A01 T00491050  RH  049%=      5-min Rain = 0
KMES 191900Z 33021G26KT 05/M05 A303 RMK A01 T00471053  RH  048%=      5-min Rain = 0
KMES 191905Z 35017G24KT 05/M05 A303 RMK A01 T00491051  RH  049%=      5-min Rain = 0
KMES 191910Z 33017G24KT 05/M05 A303 RMK A01 T00491051  RH  049%=      5-min Rain = 0
KMES 191915Z 34018G25KT 05/M05 A303 RMK A01 T00531050  RH  047%=      5-min Rain = 0
KMES 191920Z 33020G25KT 05/M05 A3029 RMK A01 T00541051  RH  047%=      5-min Rain = 0
KMES 191925Z 33018KT 05/M05 A3029 RMK A01 T00541050  RH  047%=      5-min Rain = 0
KMES 191930Z 33018G26KT 06/M05 A3028 RMK A01 T00571049  RH  047%=      5-min Rain = 0
KMES 191935Z 34017G24KT 06/M05 A3028 RMK A01 T00571050  RH  046%=      5-min Rain = 0
KMES 191940Z 34017G23KT 06/M05 A3028 RMK A01 T00591048  RH  046%=      5-min Rain = 0
KMES 191945Z 34015G22KT 06/M05 A3028 RMK A01 T00591047  RH  046%=      5-min Rain = 0
KMES 191950Z 34016G22KT 06/M05 A3027 RMK A01 T00591049  RH  046%=      5-min Rain = 0
KMES 191955Z 33014G22KT 06/M05 A3027 RMK A01 T00581049  RH  046%=      5-min Rain = 0
KMES 192000Z 33015G21KT 06/M05 A3027 RMK A01 T00591047  RH  047%=      5-min Rain = 0
KMES 192005Z 34015G20KT 06/M05 A3027 RMK A01 T00621048  RH  045%=      5-min Rain = 0
KMES 192010Z 34014G19KT 06/M05 A3027 RMK A01 T00631048  RH  045%=      5-min Rain = 0
KMES 192015Z 33017G22KT 06/M05 A3027 RMK A01 T00621050  RH  045%=      5-min Rain = 0
KMES 192020Z 35016G21KT 06/M05 A3026 RMK A01 T00621050  RH  045%=      5-min Rain = 0
KMES 192025Z 34014G19KT 06/M05 A3026 RMK A01 T00631050  RH  044%=      5-min Rain = 0
KMES 192030Z 32016G21KT 06/M05 A3026 RMK A01 T00641050  RH  044%=      5-min Rain = 0
KMES 192035Z 33014G20KT 07/M05 A3026 RMK A01 T00661048  RH  044%=      5-min Rain = 0
KMES 192040Z 32017KT 07/M05 A3026 RMK A01 T00661050  RH  043%=      5-min Rain = 0
KMES 192045Z 32015G21KT 07/M05 A3026 RMK A01 T00661050  RH  043%=      5-min Rain = 0
KMES 192050Z 34014G19KT 07/M05 A3026 RMK A01 T00691049  RH  043%=      5-min Rain = 0
KMES 192055Z 33014G19KT 07/M05 A3026 RMK A01 T00711049  RH  042%=      5-min Rain = 0
KMES 192100Z 34015G20KT 07/M05 A3025 RMK A01 T00691049  RH  043%=      5-min Rain = 0
KMES 192105Z 33016G22KT 07/M05 A3026 RMK A01 T00691048  RH  043%=      5-min Rain = 0
KMES 192110Z 33017G22KT 07/M05 A3025 RMK A01 T00701047  RH  043%=      5-min Rain = 0
KMES 192115Z 33017KT 07/M05 A3026 RMK A01 T00711048  RH  042%=      5-min Rain = 0
KMES 192120Z 34017G22KT 07/M05 A3026 RMK A01 T00721049  RH  042%=      5-min Rain = 0
KMES 192125Z 34015G20KT 07/M05 A3026 RMK A01 T00721049  RH  042%=      5-min Rain = 0
KMES 192130Z 33016G22KT 07/M05 A3026 RMK A01 T00731048  RH  042%=      5-min Rain = 0
KMES 192135Z 33014KT 07/M05 A3026 RMK A01 T00711049  RH  042%=      5-min Rain = 0
KMES 192140Z 33014G19KT 08/M05 A3026 RMK A01 T00751047  RH  042%=      5-min Rain = 0
KMES 192145Z 33016G21KT 07/M05 A3027 RMK A01 T00741047  RH  042%=      5-min Rain = 0
KMES 192150Z 33015G22KT 07/M05 A3027 RMK A01 T00731047  RH  042%=      5-min Rain = 0
KMES 192155Z 34015G20KT 07/M05 A3027 RMK A01 T00731048  RH  042%=      5-min Rain = 0
KMES 192200Z 35016G23KT 08/M05 A3027 RMK A01 T00761046  RH  042%=      5-min Rain = 0
KMES 192205Z 35016KT 08/M05 A3027 RMK A01 T00761046  RH  042%=      5-min Rain = 0
KMES 192210Z 34016G23KT 08/M05 A3027 RMK A01 T00761045  RH  042%=      5-min Rain = 0
KMES 192215Z 35016KT 08/M05 A3027 RMK A01 T00751046  RH  042%=      5-min Rain = 0
KMES 192220Z 34015KT 08/M04 A3027 RMK A01 T00751044  RH  043%=      5-min Rain = 0
KMES 192225Z 34014G20KT 07/M04 A3027 RMK A01 T00741044  RH  043%=      5-min Rain = 0
KMES 192230Z 34016KT 07/M04 A3028 RMK A01 T00741044  RH  043%=      5-min Rain = 0
KMES 192235Z 33014KT 07/M05 A3028 RMK A01 T00721045  RH  043%=      5-min Rain = 0
KMES 192240Z 34013KT 07/M04 A3028 RMK A01 T00731044  RH  043%=      5-min Rain = 0
KMES 192245Z 35014G19KT 07/M04 A3027 RMK A01 T00741043  RH  043%=      5-min Rain = 0
KMES 192250Z 34011KT 07/M04 A3028 RMK A01 T00741042  RH  044%=      5-min Rain = 0
KMES 192255Z 34011KT 07/M04 A3027 RMK A01 T00741042  RH  044%=      5-min Rain = 0
KMES 192300Z 34012KT 07/M04 A3028 RMK A01 T00731042  RH  044%=      5-min Rain = 0
KMES 192305Z 35011KT 07/M04 A3028 RMK A01 T00711042  RH  045%=      5-min Rain = 0
KMES 192310Z 34009KT 07/M04 A3028 RMK A01 T00711040  RH  045%=      5-min Rain = 0
KMES 192315Z 33011KT 07/M04 A3028 RMK A01 T00691040  RH  046%=      5-min Rain = 0
KMES 192320Z 33009KT 07/M04 A3028 RMK A01 T00681040  RH  046%=      5-min Rain = 0
KMES 192325Z 33010KT 07/M04 A3028 RMK A01 T00671038  RH  047%=      5-min Rain = 0
KMES 192330Z 34010KT 07/M04 A3028 RMK A01 T00661038  RH  048%=      5-min Rain = 0
KMES 192335Z 34010KT 07/M04 A3028 RMK A01 T00651037  RH  048%=      5-min Rain = 0
KMES 192340Z 34010KT 06/M04 A3028 RMK A01 T00631038  RH  049%=      5-min Rain = 0
KMES 192345Z 33009KT 06/M04 A3028 RMK A01 T00611037  RH  050%=      5-min Rain = 0
KMES 192350Z 34007KT 06/M04 A3028 RMK A01 T00581037  RH  051%=      5-min Rain = 0
KMES 192355Z 34007KT 05/M04 A3028 RMK A01 T00531038  RH  052%=      5-min Rain = 0
KMES 200000Z 34006KT 05/M04 A3028 RMK A01 T00481039  RH  053%=      5-min Rain = 0
KMES 200005Z 35006KT 04/M04 A3028 RMK A01 T00441039  RH  055%=      5-min Rain = 0
KMES 200010Z 34005KT 04/M04 A3029 RMK A01 T00411039  RH  056%=      5-min Rain = 0
KMES 200015Z 33005KT 04/M04 A3029 RMK A01 T00411039  RH  056%=      5-min Rain = 0
KMES 200020Z 31005KT 04/M04 A3029 RMK A01 T00411038  RH  057%=      5-min Rain = 0
KMES 200025Z 32004KT 04/M04 A3029 RMK A01 T00421037  RH  057%=      5-min Rain = 0
KMES 200030Z 33004KT 04/M04 A3029 RMK A01 T00421039  RH  056%=      5-min Rain = 0
KMES 200035Z 33004KT 04/M04 A3029 RMK A01 T00381039  RH  057%=      5-min Rain = 0
KMES 200040Z 32004KT 04/M04 A3029 RMK A01 T00371039  RH  058%=      5-min Rain = 0
KMES 200045Z 33005KT 04/M04 A3029 RMK A01 T00361039  RH  058%=      5-min Rain = 0
KMES 200050Z 34006KT 03/M04 A3029 RMK A01 T00271042  RH  061%=      5-min Rain = 0
KMES 200055Z 35007KT 02/M05 A3029 RMK A01 T00181046  RH  063%=      5-min Rain = 0
KMES 200100Z 35008KT 01/M05 A3029 RMK A01 T00131045  RH  065%=      5-min Rain = 0
KMES 200105Z 36008KT 02/M04 A3029 RMK A01 T00161041  RH  066%=      5-min Rain = 0
KMES 200110Z 00007KT 02/M04 A3029 RMK A01 T00211039  RH  065%=      5-min Rain = 0
KMES 200115Z 00006KT 02/M04 A303 RMK A01 T00211039  RH  065%=      5-min Rain = 0
KMES 200120Z 36005KT 02/M04 A303 RMK A01 T00171041  RH  066%=      5-min Rain = 0
KMES 200125Z 01003KT 01/M04 A3029 RMK A01 T00141042  RH  066%=      5-min Rain = 0
KMES 200130Z 02003KT 01/M04 A3028 RMK A01 T00131042  RH  067%=      5-min Rain = 0
KMES 200135Z 09002KT 01/M04 A3028 RMK A01 T00111041  RH  068%=      5-min Rain = 0
KMES 200140Z 11002KT 01/M04 A3028 RMK A01 T00101041  RH  069%=      5-min Rain = 0
KMES 200145Z 07002KT 01/M04 A3028 RMK A01 T00091042  RH  069%=      5-min Rain = 0
KMES 200150Z 09001KT 01/M04 A3028 RMK A01 T00071043  RH  069%=      5-min Rain = 0
KMES 200155Z 12000KT 01/M04 A3028 RMK A01 T00061044  RH  070%=      5-min Rain = 0
KMES 200200Z 06000KT 00/M05 A3028 RMK A01 T00021045  RH  071%=      5-min Rain = 0
KMES 200205Z 09000KT 00/M04 A3028 RMK A01 T00021044  RH  071%=      5-min Rain = 0
KMES 200210Z 05001KT M00/M05 A3028 RMK A01 T10011046  RH  072%=      5-min Rain = 0
KMES 200215Z 03001KT M00/M04 A3028 RMK A01 T10021044  RH  073%=      5-min Rain = 0
KMES 200220Z 00000KT 00/M04 A3029 RMK A01 T00011041  RH  074%=      5-min Rain = 0
KMES 200225Z 00000KT 00/M04 A3029 RMK A01 T00011042  RH  073%=      5-min Rain = 0
KMES 200230Z 04000KT 00/M04 A3029 RMK A01 T00011043  RH  073%=      5-min Rain = 0
KMES 200235Z 02002KT M00/M05 A303 RMK A01 T10021045  RH  073%=      5-min Rain = 0
KMES 200240Z 01004KT M01/M05 A3031 RMK A01 T10061047  RH  074%=      5-min Rain = 0
KMES 200245Z 01004KT M01/M05 A303 RMK A01 T10071045  RH  076%=      5-min Rain = 0
KMES 200250Z 01003KT M01/M05 A303 RMK A01 T10081045  RH  076%=      5-min Rain = 0
KMES 200255Z 02003KT M01/M05 A303 RMK A01 T10091046  RH  077%=      5-min Rain = 0
KMES 200300Z 02001KT M01/M05 A303 RMK A01 T10111048  RH  076%=      5-min Rain = 0
KMES 200305Z 00000KT M01/M04 A3031 RMK A01 T10101044  RH  078%=      5-min Rain = 0
KMES 200310Z 14001KT M01/M04 A3031 RMK A01 T10091044  RH  078%=      5-min Rain = 0
KMES 200315Z 12000KT M01/M05 A3031 RMK A01 T10111047  RH  077%=      5-min Rain = 0
KMES 200320Z 00000KT M02/M05 A3031 RMK A01 T10161049  RH  078%=      5-min Rain = 0
KMES 200325Z 35000KT M02/M05 A3031 RMK A01 T10161046  RH  080%=      5-min Rain = 0
KMES 200330Z 16004KT M02/M05 A3031 RMK A01 T10161046  RH  080%=      5-min Rain = 0
KMES 200335Z 15002KT M02/M05 A3031 RMK A01 T10171046  RH  081%=      5-min Rain = 0
KMES 200340Z 26001KT M02/M05 A3031 RMK A01 T10181047  RH  081%=      5-min Rain = 0
KMES 200345Z 26001KT M02/M04 A3031 RMK A01 T10151044  RH  081%=      5-min Rain = 0
KMES 200350Z 06000KT M02/M05 A3031 RMK A01 T10201050  RH  080%=      5-min Rain = 0
KMES 200355Z 07000KT M02/M05 A3031 RMK A01 T10231051  RH  082%=      5-min Rain = 0
KMES 200400Z 06004KT M03/M05 A303 RMK A01 T10271053  RH  083%=      5-min Rain = 0
KMES 200405Z 05005KT M03/M05 A3031 RMK A01 T10291052  RH  084%=      5-min Rain = 0
KMES 200410Z 05003KT M03/M05 A3031 RMK A01 T10291053  RH  084%=      5-min Rain = 0
KMES 200415Z 05001KT M03/M05 A3031 RMK A01 T10291052  RH  084%=      5-min Rain = 0
KMES 200420Z 00000KT M03/M05 A3031 RMK A01 T10261049  RH  085%=      5-min Rain = 0
KMES 200425Z 04001KT M03/M05 A303 RMK A01 T10261049  RH  085%=      5-min Rain = 0
KMES 200430Z 05006KT M03/M05 A3029 RMK A01 T10291052  RH  084%=      5-min Rain = 0
KMES 200435Z 05006KT M03/M05 A3029 RMK A01 T10291051  RH  085%=      5-min Rain = 0
KMES 200440Z 07003KT M03/M05 A3029 RMK A01 T10261051  RH  084%=      5-min Rain = 0
KMES 200445Z 10000KT M03/M05 A3029 RMK A01 T10261051  RH  083%=      5-min Rain = 0
KMES 200450Z 02001KT M03/M05 A3029 RMK A01 T10251052  RH  082%=      5-min Rain = 0
KMES 200455Z 36000KT M03/M05 A303 RMK A01 T10271054  RH  082%=      5-min Rain = 0
KMES 200500Z 00000KT M03/M05 A303 RMK A01 T10251052  RH  082%=      5-min Rain = 0
KMES 200505Z 00000KT M03/M05 A3031 RMK A01 T10251053  RH  081%=      5-min Rain = 0
KMES 200510Z 25001KT M03/M05 A3032 RMK A01 T10251054  RH  081%=      5-min Rain = 0
KMES 200515Z 00000KT M03/M06 A3032 RMK A01 T10261056  RH  080%=      5-min Rain = 0
KMES 200520Z 10000KT M02/M06 A3032 RMK A01 T10241055  RH  079%=      5-min Rain = 0
KMES 200525Z 07001KT M03/M06 A3031 RMK A01 T10271060  RH  078%=      5-min Rain = 0
KMES 200530Z 05000KT M03/M06 A3032 RMK A01 T10311063  RH  079%=      5-min Rain = 0
KMES 200535Z 21000KT M03/M06 A3032 RMK A01 T10341062  RH  081%=      5-min Rain = 0
KMES 200540Z 00000KT M04/M06 A3033 RMK A01 T10351061  RH  082%=      5-min Rain = 0
KMES 200545Z 25001KT M03/M06 A3033 RMK A01 T10301057  RH  082%=      5-min Rain = 0
KMES 200550Z 00000KT M03/M06 A3033 RMK A01 T10291061  RH  079%=      5-min Rain = 0
KMES 200555Z 00000KT M03/M06 A3034 RMK A01 T10321062  RH  080%=      5-min Rain = 0

Page generated in 0.0093 seconds.